sensor_id;sensor_type;location;lat;lon;timestamp;P1;durP1;ratioP1;P2;durP2;ratioP2
7426;SDS011;3755;59.316;18.092;2024-03-02T00:00:26;25.63;;;13.57;;
7426;SDS011;3755;59.316;18.092;2024-03-02T00:02:53;26.80;;;13.57;;
7426;SDS011;3755;59.316;18.092;2024-03-02T00:05:20;29.20;;;14.27;;
7426;SDS011;3755;59.316;18.092;2024-03-02T00:07:52;30.40;;;14.73;;
7426;SDS011;3755;59.316;18.092;2024-03-02T00:10:21;26.20;;;14.17;;
7426;SDS011;3755;59.316;18.092;2024-03-02T00:12:55;28.17;;;14.60;;
7426;SDS011;3755;59.316;18.092;2024-03-02T00:15:29;25.00;;;14.13;;
7426;SDS011;3755;59.316;18.092;2024-03-02T00:18:09;28.00;;;13.87;;
7426;SDS011;3755;59.316;18.092;2024-03-02T00:20:38;28.37;;;14.23;;
7426;SDS011;3755;59.316;18.092;2024-03-02T00:23:06;31.60;;;15.30;;
7426;SDS011;3755;59.316;18.092;2024-03-02T00:25:43;25.50;;;13.67;;
7426;SDS011;3755;59.316;18.092;2024-03-02T00:28:18;30.43;;;14.63;;
7426;SDS011;3755;59.316;18.092;2024-03-02T00:30:51;28.70;;;14.47;;
7426;SDS011;3755;59.316;18.092;2024-03-02T00:33:21;31.70;;;13.10;;
7426;SDS011;3755;59.316;18.092;2024-03-02T00:35:50;29.90;;;15.03;;
7426;SDS011;3755;59.316;18.092;2024-03-02T00:38:17;27.03;;;14.13;;
7426;SDS011;3755;59.316;18.092;2024-03-02T00:40:44;27.50;;;14.27;;
7426;SDS011;3755;59.316;18.092;2024-03-02T00:43:18;30.60;;;14.77;;
7426;SDS011;3755;59.316;18.092;2024-03-02T00:46:03;32.17;;;13.37;;
7426;SDS011;3755;59.316;18.092;2024-03-02T00:48:30;27.83;;;14.17;;
7426;SDS011;3755;59.316;18.092;2024-03-02T00:51:01;28.10;;;13.47;;
7426;SDS011;3755;59.316;18.092;2024-03-02T00:53:29;30.13;;;14.57;;
7426;SDS011;3755;59.316;18.092;2024-03-02T00:55:57;27.23;;;15.23;;
7426;SDS011;3755;59.316;18.092;2024-03-02T00:58:24;23.23;;;13.27;;
7426;SDS011;3755;59.316;18.092;2024-03-02T01:00:53;26.90;;;14.40;;
7426;SDS011;3755;59.316;18.092;2024-03-02T01:03:20;28.77;;;14.20;;
7426;SDS011;3755;59.316;18.092;2024-03-02T01:05:47;25.77;;;13.23;;
7426;SDS011;3755;59.316;18.092;2024-03-02T01:08:14;30.80;;;15.13;;
7426;SDS011;3755;59.316;18.092;2024-03-02T01:10:41;28.17;;;14.20;;
7426;SDS011;3755;59.316;18.092;2024-03-02T01:13:09;27.30;;;14.73;;
7426;SDS011;3755;59.316;18.092;2024-03-02T01:15:36;28.30;;;14.03;;
7426;SDS011;3755;59.316;18.092;2024-03-02T01:18:04;30.10;;;14.63;;
7426;SDS011;3755;59.316;18.092;2024-03-02T01:20:31;24.83;;;14.10;;
7426;SDS011;3755;59.316;18.092;2024-03-02T01:22:59;28.47;;;14.30;;
7426;SDS011;3755;59.316;18.092;2024-03-02T01:25:26;31.70;;;13.83;;
7426;SDS011;3755;59.316;18.092;2024-03-02T01:27:53;25.87;;;14.13;;
7426;SDS011;3755;59.316;18.092;2024-03-02T01:30:20;27.60;;;13.23;;
7426;SDS011;3755;59.316;18.092;2024-03-02T01:32:47;31.27;;;14.40;;
7426;SDS011;3755;59.316;18.092;2024-03-02T01:35:15;31.43;;;14.87;;
7426;SDS011;3755;59.316;18.092;2024-03-02T01:37:42;28.93;;;13.97;;
7426;SDS011;3755;59.316;18.092;2024-03-02T01:40:10;28.67;;;13.47;;
7426;SDS011;3755;59.316;18.092;2024-03-02T01:42:37;28.27;;;14.07;;
7426;SDS011;3755;59.316;18.092;2024-03-02T01:45:05;26.90;;;14.93;;
7426;SDS011;3755;59.316;18.092;2024-03-02T01:47:33;29.43;;;14.30;;
7426;SDS011;3755;59.316;18.092;2024-03-02T01:50:00;31.53;;;14.67;;
7426;SDS011;3755;59.316;18.092;2024-03-02T01:52:29;29.97;;;15.50;;
7426;SDS011;3755;59.316;18.092;2024-03-02T01:54:56;27.47;;;15.07;;
7426;SDS011;3755;59.316;18.092;2024-03-02T01:57:23;26.90;;;14.83;;
7426;SDS011;3755;59.316;18.092;2024-03-02T01:59:50;28.30;;;14.30;;
7426;SDS011;3755;59.316;18.092;2024-03-02T02:02:18;28.63;;;14.73;;
7426;SDS011;3755;59.316;18.092;2024-03-02T02:04:46;26.80;;;14.83;;
7426;SDS011;3755;59.316;18.092;2024-03-02T02:07:13;30.07;;;14.57;;
7426;SDS011;3755;59.316;18.092;2024-03-02T02:09:42;29.10;;;14.27;;
7426;SDS011;3755;59.316;18.092;2024-03-02T02:12:09;28.30;;;15.30;;
7426;SDS011;3755;59.316;18.092;2024-03-02T02:14:36;29.40;;;14.93;;
7426;SDS011;3755;59.316;18.092;2024-03-02T02:17:05;27.33;;;14.83;;
7426;SDS011;3755;59.316;18.092;2024-03-02T02:19:32;29.70;;;14.97;;
7426;SDS011;3755;59.316;18.092;2024-03-02T02:22:00;29.70;;;15.83;;
7426;SDS011;3755;59.316;18.092;2024-03-02T02:24:27;29.23;;;15.10;;
7426;SDS011;3755;59.316;18.092;2024-03-02T02:26:54;27.20;;;14.97;;
7426;SDS011;3755;59.316;18.092;2024-03-02T02:29:21;33.80;;;16.13;;
7426;SDS011;3755;59.316;18.092;2024-03-02T02:31:49;28.40;;;15.70;;
7426;SDS011;3755;59.316;18.092;2024-03-02T02:34:16;30.10;;;15.20;;
7426;SDS011;3755;59.316;18.092;2024-03-02T02:36:43;33.17;;;16.60;;
7426;SDS011;3755;59.316;18.092;2024-03-02T02:39:13;29.73;;;15.30;;
7426;SDS011;3755;59.316;18.092;2024-03-02T02:41:42;24.90;;;14.80;;
7426;SDS011;3755;59.316;18.092;2024-03-02T02:44:09;30.27;;;15.77;;
7426;SDS011;3755;59.316;18.092;2024-03-02T02:46:37;30.87;;;16.07;;
7426;SDS011;3755;59.316;18.092;2024-03-02T02:49:04;34.33;;;15.87;;
7426;SDS011;3755;59.316;18.092;2024-03-02T02:51:32;29.30;;;15.83;;
7426;SDS011;3755;59.316;18.092;2024-03-02T02:53:59;32.00;;;16.23;;
7426;SDS011;3755;59.316;18.092;2024-03-02T02:56:27;31.63;;;15.90;;
7426;SDS011;3755;59.316;18.092;2024-03-02T02:58:54;33.73;;;16.77;;
7426;SDS011;3755;59.316;18.092;2024-03-02T03:01:21;31.23;;;16.67;;
7426;SDS011;3755;59.316;18.092;2024-03-02T03:03:48;27.40;;;15.43;;
7426;SDS011;3755;59.316;18.092;2024-03-02T03:06:15;34.13;;;15.23;;
7426;SDS011;3755;59.316;18.092;2024-03-02T03:08:43;33.73;;;17.40;;
7426;SDS011;3755;59.316;18.092;2024-03-02T03:11:10;32.63;;;17.13;;
7426;SDS011;3755;59.316;18.092;2024-03-02T03:13:38;31.67;;;17.13;;
7426;SDS011;3755;59.316;18.092;2024-03-02T03:16:05;33.87;;;17.20;;
7426;SDS011;3755;59.316;18.092;2024-03-02T03:18:32;36.83;;;17.03;;
7426;SDS011;3755;59.316;18.092;2024-03-02T03:20:59;35.27;;;17.27;;
7426;SDS011;3755;59.316;18.092;2024-03-02T03:23:26;35.90;;;16.87;;
7426;SDS011;3755;59.316;18.092;2024-03-02T03:25:53;33.13;;;17.03;;
7426;SDS011;3755;59.316;18.092;2024-03-02T03:28:20;37.30;;;16.77;;
7426;SDS011;3755;59.316;18.092;2024-03-02T03:30:48;38.47;;;17.37;;
7426;SDS011;3755;59.316;18.092;2024-03-02T03:33:15;32.70;;;16.67;;
7426;SDS011;3755;59.316;18.092;2024-03-02T03:35:42;33.33;;;17.27;;
7426;SDS011;3755;59.316;18.092;2024-03-02T03:38:09;28.40;;;15.63;;
7426;SDS011;3755;59.316;18.092;2024-03-02T03:40:37;32.10;;;17.13;;
7426;SDS011;3755;59.316;18.092;2024-03-02T03:43:03;32.30;;;16.97;;
7426;SDS011;3755;59.316;18.092;2024-03-02T03:45:31;36.60;;;17.73;;
7426;SDS011;3755;59.316;18.092;2024-03-02T03:47:59;34.90;;;16.70;;
7426;SDS011;3755;59.316;18.092;2024-03-02T03:50:26;29.50;;;16.03;;
7426;SDS011;3755;59.316;18.092;2024-03-02T03:52:53;36.13;;;18.13;;
7426;SDS011;3755;59.316;18.092;2024-03-02T03:55:20;31.30;;;17.20;;
7426;SDS011;3755;59.316;18.092;2024-03-02T03:57:47;32.07;;;17.03;;
7426;SDS011;3755;59.316;18.092;2024-03-02T04:00:14;30.97;;;17.70;;
7426;SDS011;3755;59.316;18.092;2024-03-02T04:02:42;30.57;;;16.93;;
7426;SDS011;3755;59.316;18.092;2024-03-02T04:05:10;35.83;;;16.20;;
7426;SDS011;3755;59.316;18.092;2024-03-02T04:07:37;31.13;;;16.43;;
7426;SDS011;3755;59.316;18.092;2024-03-02T04:10:06;34.13;;;17.07;;
7426;SDS011;3755;59.316;18.092;2024-03-02T04:12:34;35.60;;;17.60;;
7426;SDS011;3755;59.316;18.092;2024-03-02T04:15:02;35.47;;;17.03;;
7426;SDS011;3755;59.316;18.092;2024-03-02T04:17:31;35.83;;;16.67;;
7426;SDS011;3755;59.316;18.092;2024-03-02T04:19:59;42.70;;;17.83;;
7426;SDS011;3755;59.316;18.092;2024-03-02T04:22:27;35.10;;;15.83;;
7426;SDS011;3755;59.316;18.092;2024-03-02T04:24:54;32.97;;;16.53;;
7426;SDS011;3755;59.316;18.092;2024-03-02T04:27:21;27.50;;;16.90;;
7426;SDS011;3755;59.316;18.092;2024-03-02T04:29:48;32.23;;;17.00;;
7426;SDS011;3755;59.316;18.092;2024-03-02T04:32:15;33.43;;;15.80;;
7426;SDS011;3755;59.316;18.092;2024-03-02T04:34:44;30.03;;;16.20;;
7426;SDS011;3755;59.316;18.092;2024-03-02T04:37:11;33.90;;;16.17;;
7426;SDS011;3755;59.316;18.092;2024-03-02T04:39:41;38.77;;;17.63;;
7426;SDS011;3755;59.316;18.092;2024-03-02T04:42:08;32.03;;;16.60;;
7426;SDS011;3755;59.316;18.092;2024-03-02T04:44:35;36.33;;;17.10;;
7426;SDS011;3755;59.316;18.092;2024-03-02T04:47:03;31.67;;;16.40;;
7426;SDS011;3755;59.316;18.092;2024-03-02T04:49:30;37.20;;;16.80;;
7426;SDS011;3755;59.316;18.092;2024-03-02T04:51:57;34.87;;;17.03;;
7426;SDS011;3755;59.316;18.092;2024-03-02T04:54:24;35.03;;;17.00;;
7426;SDS011;3755;59.316;18.092;2024-03-02T04:56:52;33.67;;;15.90;;
7426;SDS011;3755;59.316;18.092;2024-03-02T04:59:19;36.90;;;16.63;;
7426;SDS011;3755;59.316;18.092;2024-03-02T05:01:46;30.73;;;16.03;;
7426;SDS011;3755;59.316;18.092;2024-03-02T05:04:15;33.03;;;17.17;;
7426;SDS011;3755;59.316;18.092;2024-03-02T05:06:42;32.93;;;16.80;;
7426;SDS011;3755;59.316;18.092;2024-03-02T05:09:09;35.43;;;16.53;;
7426;SDS011;3755;59.316;18.092;2024-03-02T05:11:36;36.90;;;17.67;;
7426;SDS011;3755;59.316;18.092;2024-03-02T05:14:36;33.07;;;15.80;;
7426;SDS011;3755;59.316;18.092;2024-03-02T05:17:03;33.37;;;16.77;;
7426;SDS011;3755;59.316;18.092;2024-03-02T05:19:31;34.57;;;16.47;;
7426;SDS011;3755;59.316;18.092;2024-03-02T05:21:58;39.50;;;16.50;;
7426;SDS011;3755;59.316;18.092;2024-03-02T05:24:24;39.37;;;17.13;;
7426;SDS011;3755;59.316;18.092;2024-03-02T05:26:53;34.90;;;17.53;;
7426;SDS011;3755;59.316;18.092;2024-03-02T05:29:20;32.93;;;17.17;;
7426;SDS011;3755;59.316;18.092;2024-03-02T05:31:49;33.77;;;17.87;;
7426;SDS011;3755;59.316;18.092;2024-03-02T05:34:16;32.40;;;16.40;;
7426;SDS011;3755;59.316;18.092;2024-03-02T05:36:43;32.80;;;17.60;;
7426;SDS011;3755;59.316;18.092;2024-03-02T05:39:10;35.87;;;16.83;;
7426;SDS011;3755;59.316;18.092;2024-03-02T05:41:37;32.30;;;16.10;;
7426;SDS011;3755;59.316;18.092;2024-03-02T05:44:04;34.80;;;16.83;;
7426;SDS011;3755;59.316;18.092;2024-03-02T05:46:31;35.57;;;17.57;;
7426;SDS011;3755;59.316;18.092;2024-03-02T05:49:00;36.33;;;17.20;;
7426;SDS011;3755;59.316;18.092;2024-03-02T05:51:27;33.97;;;16.83;;
7426;SDS011;3755;59.316;18.092;2024-03-02T05:53:54;30.40;;;16.43;;
7426;SDS011;3755;59.316;18.092;2024-03-02T05:56:21;36.93;;;16.67;;
7426;SDS011;3755;59.316;18.092;2024-03-02T05:58:48;34.57;;;16.73;;
7426;SDS011;3755;59.316;18.092;2024-03-02T06:01:26;33.57;;;16.43;;
7426;SDS011;3755;59.316;18.092;2024-03-02T06:03:55;40.93;;;17.40;;
7426;SDS011;3755;59.316;18.092;2024-03-02T06:06:25;35.23;;;16.53;;
7426;SDS011;3755;59.316;18.092;2024-03-02T06:08:52;35.93;;;16.30;;
7426;SDS011;3755;59.316;18.092;2024-03-02T06:11:19;36.93;;;16.47;;
7426;SDS011;3755;59.316;18.092;2024-03-02T06:13:46;33.03;;;16.17;;
7426;SDS011;3755;59.316;18.092;2024-03-02T06:16:13;38.83;;;16.97;;
7426;SDS011;3755;59.316;18.092;2024-03-02T06:18:40;39.67;;;16.27;;
7426;SDS011;3755;59.316;18.092;2024-03-02T06:21:07;35.03;;;16.87;;
7426;SDS011;3755;59.316;18.092;2024-03-02T06:23:35;36.67;;;16.20;;
7426;SDS011;3755;59.316;18.092;2024-03-02T06:26:02;41.13;;;19.40;;
7426;SDS011;3755;59.316;18.092;2024-03-02T06:28:30;36.67;;;16.93;;
7426;SDS011;3755;59.316;18.092;2024-03-02T06:30:56;32.27;;;16.70;;
7426;SDS011;3755;59.316;18.092;2024-03-02T06:33:24;32.73;;;15.83;;
7426;SDS011;3755;59.316;18.092;2024-03-02T06:35:51;29.50;;;16.10;;
7426;SDS011;3755;59.316;18.092;2024-03-02T06:38:18;37.43;;;15.97;;
7426;SDS011;3755;59.316;18.092;2024-03-02T06:40:46;32.77;;;15.80;;
7426;SDS011;3755;59.316;18.092;2024-03-02T06:43:13;31.70;;;15.10;;
7426;SDS011;3755;59.316;18.092;2024-03-02T06:45:40;31.80;;;14.23;;
7426;SDS011;3755;59.316;18.092;2024-03-02T06:48:07;34.60;;;15.50;;
7426;SDS011;3755;59.316;18.092;2024-03-02T06:50:34;28.37;;;15.10;;
7426;SDS011;3755;59.316;18.092;2024-03-02T06:53:02;29.50;;;13.70;;
7426;SDS011;3755;59.316;18.092;2024-03-02T06:55:29;32.83;;;15.00;;
7426;SDS011;3755;59.316;18.092;2024-03-02T06:57:58;24.90;;;11.63;;
7426;SDS011;3755;59.316;18.092;2024-03-02T07:00:25;36.03;;;15.67;;
7426;SDS011;3755;59.316;18.092;2024-03-02T07:02:52;29.70;;;14.20;;
7426;SDS011;3755;59.316;18.092;2024-03-02T07:05:19;33.07;;;14.30;;
7426;SDS011;3755;59.316;18.092;2024-03-02T07:07:46;28.63;;;14.80;;
7426;SDS011;3755;59.316;18.092;2024-03-02T07:10:13;29.87;;;12.27;;
7426;SDS011;3755;59.316;18.092;2024-03-02T07:12:41;27.87;;;14.33;;
7426;SDS011;3755;59.316;18.092;2024-03-02T07:15:11;27.00;;;13.77;;
7426;SDS011;3755;59.316;18.092;2024-03-02T07:17:55;25.60;;;13.37;;
7426;SDS011;3755;59.316;18.092;2024-03-02T07:20:22;26.37;;;13.73;;
7426;SDS011;3755;59.316;18.092;2024-03-02T07:22:49;28.37;;;12.33;;
7426;SDS011;3755;59.316;18.092;2024-03-02T07:25:16;22.93;;;13.17;;
7426;SDS011;3755;59.316;18.092;2024-03-02T07:27:44;29.50;;;12.83;;
7426;SDS011;3755;59.316;18.092;2024-03-02T07:30:15;27.07;;;14.07;;
7426;SDS011;3755;59.316;18.092;2024-03-02T07:32:42;29.30;;;13.43;;
7426;SDS011;3755;59.316;18.092;2024-03-02T07:35:11;28.43;;;13.70;;
7426;SDS011;3755;59.316;18.092;2024-03-02T07:37:39;26.27;;;13.10;;
7426;SDS011;3755;59.316;18.092;2024-03-02T07:40:07;32.17;;;14.20;;
7426;SDS011;3755;59.316;18.092;2024-03-02T07:42:37;31.20;;;13.60;;
7426;SDS011;3755;59.316;18.092;2024-03-02T07:45:05;31.17;;;14.07;;
7426;SDS011;3755;59.316;18.092;2024-03-02T07:47:34;26.47;;;13.10;;
7426;SDS011;3755;59.316;18.092;2024-03-02T07:50:01;31.13;;;13.30;;
7426;SDS011;3755;59.316;18.092;2024-03-02T07:52:31;24.07;;;13.60;;
7426;SDS011;3755;59.316;18.092;2024-03-02T07:54:58;26.23;;;14.77;;
7426;SDS011;3755;59.316;18.092;2024-03-02T07:57:25;25.57;;;12.83;;
7426;SDS011;3755;59.316;18.092;2024-03-02T07:59:52;28.90;;;13.27;;
7426;SDS011;3755;59.316;18.092;2024-03-02T08:02:20;25.13;;;13.57;;
7426;SDS011;3755;59.316;18.092;2024-03-02T08:04:48;23.17;;;13.10;;
7426;SDS011;3755;59.316;18.092;2024-03-02T08:07:16;25.10;;;13.03;;
7426;SDS011;3755;59.316;18.092;2024-03-02T08:09:43;29.00;;;13.77;;
7426;SDS011;3755;59.316;18.092;2024-03-02T08:12:11;28.77;;;13.70;;
7426;SDS011;3755;59.316;18.092;2024-03-02T08:14:38;26.53;;;13.57;;
7426;SDS011;3755;59.316;18.092;2024-03-02T08:17:05;25.97;;;12.50;;
7426;SDS011;3755;59.316;18.092;2024-03-02T08:19:34;21.00;;;13.00;;
7426;SDS011;3755;59.316;18.092;2024-03-02T08:22:04;26.73;;;12.67;;
7426;SDS011;3755;59.316;18.092;2024-03-02T08:24:31;26.63;;;13.37;;
7426;SDS011;3755;59.316;18.092;2024-03-02T08:26:59;27.00;;;12.73;;
7426;SDS011;3755;59.316;18.092;2024-03-02T08:29:27;22.90;;;11.37;;
7426;SDS011;3755;59.316;18.092;2024-03-02T08:31:54;27.57;;;12.00;;
7426;SDS011;3755;59.316;18.092;2024-03-02T08:34:20;22.80;;;11.87;;
7426;SDS011;3755;59.316;18.092;2024-03-02T08:36:47;22.90;;;11.70;;
7426;SDS011;3755;59.316;18.092;2024-03-02T08:39:15;22.17;;;12.47;;
7426;SDS011;3755;59.316;18.092;2024-03-02T08:41:44;22.00;;;11.77;;
7426;SDS011;3755;59.316;18.092;2024-03-02T08:44:12;23.57;;;11.30;;
7426;SDS011;3755;59.316;18.092;2024-03-02T08:46:40;21.07;;;12.27;;
7426;SDS011;3755;59.316;18.092;2024-03-02T08:49:07;22.23;;;11.23;;
7426;SDS011;3755;59.316;18.092;2024-03-02T08:51:34;22.73;;;11.87;;
7426;SDS011;3755;59.316;18.092;2024-03-02T08:54:01;25.87;;;11.73;;
7426;SDS011;3755;59.316;18.092;2024-03-02T08:56:31;21.10;;;10.77;;
7426;SDS011;3755;59.316;18.092;2024-03-02T08:58:58;20.13;;;11.47;;
7426;SDS011;3755;59.316;18.092;2024-03-02T09:01:25;20.93;;;11.77;;
7426;SDS011;3755;59.316;18.092;2024-03-02T09:03:52;18.23;;;10.97;;
7426;SDS011;3755;59.316;18.092;2024-03-02T09:06:19;21.73;;;12.10;;
7426;SDS011;3755;59.316;18.092;2024-03-02T09:08:46;19.97;;;12.23;;
7426;SDS011;3755;59.316;18.092;2024-03-02T09:11:17;22.07;;;11.80;;
7426;SDS011;3755;59.316;18.092;2024-03-02T09:13:46;23.50;;;11.40;;
7426;SDS011;3755;59.316;18.092;2024-03-02T09:16:13;20.00;;;11.63;;
7426;SDS011;3755;59.316;18.092;2024-03-02T09:18:40;21.80;;;11.23;;
7426;SDS011;3755;59.316;18.092;2024-03-02T09:21:07;18.40;;;10.43;;
7426;SDS011;3755;59.316;18.092;2024-03-02T09:23:35;23.43;;;11.90;;
7426;SDS011;3755;59.316;18.092;2024-03-02T09:26:03;19.93;;;11.37;;
7426;SDS011;3755;59.316;18.092;2024-03-02T09:28:30;21.33;;;10.93;;
7426;SDS011;3755;59.316;18.092;2024-03-02T09:30:59;22.60;;;10.53;;
7426;SDS011;3755;59.316;18.092;2024-03-02T09:33:27;20.40;;;10.87;;
7426;SDS011;3755;59.316;18.092;2024-03-02T09:35:54;17.97;;;10.33;;
7426;SDS011;3755;59.316;18.092;2024-03-02T09:38:22;22.70;;;11.37;;
7426;SDS011;3755;59.316;18.092;2024-03-02T09:40:49;21.30;;;11.37;;
7426;SDS011;3755;59.316;18.092;2024-03-02T09:43:18;18.17;;;11.00;;
7426;SDS011;3755;59.316;18.092;2024-03-02T09:45:46;21.87;;;10.83;;
7426;SDS011;3755;59.316;18.092;2024-03-02T09:48:15;17.97;;;10.73;;
7426;SDS011;3755;59.316;18.092;2024-03-02T09:50:43;21.13;;;10.87;;
7426;SDS011;3755;59.316;18.092;2024-03-02T09:53:11;16.53;;;10.43;;
7426;SDS011;3755;59.316;18.092;2024-03-02T09:55:39;24.23;;;11.23;;
7426;SDS011;3755;59.316;18.092;2024-03-02T09:58:09;20.17;;;11.03;;
7426;SDS011;3755;59.316;18.092;2024-03-02T10:00:37;22.27;;;10.90;;
7426;SDS011;3755;59.316;18.092;2024-03-02T10:03:04;22.10;;;11.37;;
7426;SDS011;3755;59.316;18.092;2024-03-02T10:05:33;19.37;;;11.60;;
7426;SDS011;3755;59.316;18.092;2024-03-02T10:08:00;21.87;;;10.97;;
7426;SDS011;3755;59.316;18.092;2024-03-02T10:10:35;21.27;;;10.88;;
7426;SDS011;3755;59.316;18.092;2024-03-02T10:13:05;22.63;;;10.80;;
7426;SDS011;3755;59.316;18.092;2024-03-02T10:15:34;17.20;;;9.90;;
7426;SDS011;3755;59.316;18.092;2024-03-02T10:18:02;15.37;;;9.87;;
7426;SDS011;3755;59.316;18.092;2024-03-02T10:20:29;21.03;;;11.13;;
7426;SDS011;3755;59.316;18.092;2024-03-02T10:23:09;17.77;;;9.73;;
7426;SDS011;3755;59.316;18.092;2024-03-02T10:25:37;18.47;;;9.70;;
7426;SDS011;3755;59.316;18.092;2024-03-02T10:28:04;19.57;;;10.50;;
7426;SDS011;3755;59.316;18.092;2024-03-02T10:30:32;17.20;;;9.90;;
7426;SDS011;3755;59.316;18.092;2024-03-02T10:33:00;20.57;;;11.03;;
7426;SDS011;3755;59.316;18.092;2024-03-02T10:35:28;21.83;;;11.00;;
7426;SDS011;3755;59.316;18.092;2024-03-02T10:37:57;17.50;;;8.07;;
7426;SDS011;3755;59.316;18.092;2024-03-02T10:40:27;16.80;;;10.07;;
7426;SDS011;3755;59.316;18.092;2024-03-02T10:42:55;17.07;;;10.83;;
7426;SDS011;3755;59.316;18.092;2024-03-02T10:45:22;17.30;;;10.03;;
7426;SDS011;3755;59.316;18.092;2024-03-02T10:47:50;20.13;;;9.93;;
7426;SDS011;3755;59.316;18.092;2024-03-02T10:50:21;19.10;;;10.63;;
7426;SDS011;3755;59.316;18.092;2024-03-02T10:52:48;20.53;;;10.47;;
7426;SDS011;3755;59.316;18.092;2024-03-02T10:55:15;21.43;;;10.37;;
7426;SDS011;3755;59.316;18.092;2024-03-02T10:57:49;24.03;;;10.00;;
7426;SDS011;3755;59.316;18.092;2024-03-02T11:00:18;15.87;;;10.57;;
7426;SDS011;3755;59.316;18.092;2024-03-02T11:02:50;19.60;;;9.67;;
7426;SDS011;3755;59.316;18.092;2024-03-02T11:05:21;23.77;;;10.83;;
7426;SDS011;3755;59.316;18.092;2024-03-02T11:07:53;17.65;;;10.55;;
7426;SDS011;3755;59.316;18.092;2024-03-02T11:10:25;20.63;;;11.25;;
7426;SDS011;3755;59.316;18.092;2024-03-02T11:12:56;18.85;;;10.52;;
7426;SDS011;3755;59.316;18.092;2024-03-02T11:15:27;16.65;;;9.63;;
7426;SDS011;3755;59.316;18.092;2024-03-02T11:17:54;19.73;;;10.37;;
7426;SDS011;3755;59.316;18.092;2024-03-02T11:20:22;15.70;;;9.47;;
7426;SDS011;3755;59.316;18.092;2024-03-02T11:22:50;16.77;;;9.17;;
7426;SDS011;3755;59.316;18.092;2024-03-02T11:25:23;17.60;;;10.17;;
7426;SDS011;3755;59.316;18.092;2024-03-02T11:28:06;19.63;;;10.60;;
7426;SDS011;3755;59.316;18.092;2024-03-02T11:30:50;18.77;;;10.07;;
7426;SDS011;3755;59.316;18.092;2024-03-02T11:33:24;18.97;;;9.83;;
7426;SDS011;3755;59.316;18.092;2024-03-02T11:35:56;16.70;;;9.90;;
7426;SDS011;3755;59.316;18.092;2024-03-02T11:38:32;18.03;;;9.80;;
7426;SDS011;3755;59.316;18.092;2024-03-02T11:41:00;19.37;;;10.37;;
7426;SDS011;3755;59.316;18.092;2024-03-02T11:43:37;19.30;;;10.47;;
7426;SDS011;3755;59.316;18.092;2024-03-02T11:46:05;16.73;;;10.13;;
7426;SDS011;3755;59.316;18.092;2024-03-02T11:48:34;17.30;;;11.03;;
7426;SDS011;3755;59.316;18.092;2024-03-02T11:51:03;16.47;;;10.03;;
7426;SDS011;3755;59.316;18.092;2024-03-02T11:53:30;21.80;;;10.83;;
7426;SDS011;3755;59.316;18.092;2024-03-02T11:55:58;16.70;;;10.17;;
7426;SDS011;3755;59.316;18.092;2024-03-02T11:58:26;19.23;;;10.30;;
7426;SDS011;3755;59.316;18.092;2024-03-02T12:00:56;15.27;;;9.60;;
7426;SDS011;3755;59.316;18.092;2024-03-02T12:03:23;18.30;;;10.47;;
7426;SDS011;3755;59.316;18.092;2024-03-02T12:05:53;15.50;;;9.77;;
7426;SDS011;3755;59.316;18.092;2024-03-02T12:08:20;21.47;;;10.17;;
7426;SDS011;3755;59.316;18.092;2024-03-02T12:10:58;24.07;;;10.27;;
7426;SDS011;3755;59.316;18.092;2024-03-02T12:13:26;18.23;;;9.63;;
7426;SDS011;3755;59.316;18.092;2024-03-02T12:15:54;14.00;;;9.43;;
7426;SDS011;3755;59.316;18.092;2024-03-02T12:18:23;18.03;;;9.47;;
7426;SDS011;3755;59.316;18.092;2024-03-02T12:20:50;21.63;;;9.33;;
7426;SDS011;3755;59.316;18.092;2024-03-02T12:23:22;16.60;;;9.50;;
7426;SDS011;3755;59.316;18.092;2024-03-02T12:25:49;17.13;;;9.37;;
7426;SDS011;3755;59.316;18.092;2024-03-02T12:28:17;18.00;;;9.63;;
7426;SDS011;3755;59.316;18.092;2024-03-02T12:30:45;19.77;;;10.57;;
7426;SDS011;3755;59.316;18.092;2024-03-02T12:33:14;16.97;;;10.33;;
7426;SDS011;3755;59.316;18.092;2024-03-02T12:35:42;19.57;;;9.73;;
7426;SDS011;3755;59.316;18.092;2024-03-02T12:38:09;16.53;;;9.13;;
7426;SDS011;3755;59.316;18.092;2024-03-02T12:40:37;18.40;;;10.17;;
7426;SDS011;3755;59.316;18.092;2024-03-02T12:43:05;20.80;;;9.93;;
7426;SDS011;3755;59.316;18.092;2024-03-02T12:45:32;21.10;;;9.43;;
7426;SDS011;3755;59.316;18.092;2024-03-02T12:48:01;17.30;;;9.73;;
7426;SDS011;3755;59.316;18.092;2024-03-02T12:50:32;20.70;;;10.10;;
7426;SDS011;3755;59.316;18.092;2024-03-02T12:52:59;21.10;;;10.53;;
7426;SDS011;3755;59.316;18.092;2024-03-02T12:55:27;17.40;;;9.27;;
7426;SDS011;3755;59.316;18.092;2024-03-02T12:57:54;21.87;;;9.67;;
7426;SDS011;3755;59.316;18.092;2024-03-02T13:00:22;16.70;;;9.70;;
7426;SDS011;3755;59.316;18.092;2024-03-02T13:02:49;16.07;;;9.40;;
7426;SDS011;3755;59.316;18.092;2024-03-02T13:05:16;22.27;;;9.60;;
7426;SDS011;3755;59.316;18.092;2024-03-02T13:07:46;17.73;;;9.55;;
7426;SDS011;3755;59.316;18.092;2024-03-02T13:10:13;18.30;;;10.13;;
7426;SDS011;3755;59.316;18.092;2024-03-02T13:12:41;16.03;;;9.87;;
7426;SDS011;3755;59.316;18.092;2024-03-02T13:15:08;16.70;;;9.30;;
7426;SDS011;3755;59.316;18.092;2024-03-02T13:17:35;16.07;;;9.27;;
7426;SDS011;3755;59.316;18.092;2024-03-02T13:20:03;18.70;;;9.53;;
7426;SDS011;3755;59.316;18.092;2024-03-02T13:22:33;18.67;;;9.05;;
7426;SDS011;3755;59.316;18.092;2024-03-02T13:25:02;15.27;;;9.48;;
7426;SDS011;3755;59.316;18.092;2024-03-02T13:27:30;15.63;;;9.27;;
7426;SDS011;3755;59.316;18.092;2024-03-02T13:29:57;16.70;;;9.10;;
7426;SDS011;3755;59.316;18.092;2024-03-02T13:32:25;18.35;;;9.63;;
7426;SDS011;3755;59.316;18.092;2024-03-02T13:34:52;19.30;;;9.70;;
7426;SDS011;3755;59.316;18.092;2024-03-02T13:37:19;17.80;;;8.97;;
7426;SDS011;3755;59.316;18.092;2024-03-02T13:39:47;19.27;;;10.55;;
7426;SDS011;3755;59.316;18.092;2024-03-02T13:42:19;14.97;;;7.43;;
7426;SDS011;3755;59.316;18.092;2024-03-02T13:44:46;16.30;;;8.97;;
7426;SDS011;3755;59.316;18.092;2024-03-02T13:47:14;19.07;;;10.90;;
7426;SDS011;3755;59.316;18.092;2024-03-02T13:49:42;15.90;;;8.93;;
7426;SDS011;3755;59.316;18.092;2024-03-02T13:52:11;17.73;;;9.20;;
7426;SDS011;3755;59.316;18.092;2024-03-02T13:54:39;17.67;;;9.57;;
7426;SDS011;3755;59.316;18.092;2024-03-02T13:57:07;15.50;;;9.10;;
7426;SDS011;3755;59.316;18.092;2024-03-02T13:59:36;16.33;;;8.97;;
7426;SDS011;3755;59.316;18.092;2024-03-02T14:02:04;15.53;;;8.77;;
7426;SDS011;3755;59.316;18.092;2024-03-02T14:04:32;16.57;;;8.80;;
7426;SDS011;3755;59.316;18.092;2024-03-02T14:06:59;16.20;;;9.03;;
7426;SDS011;3755;59.316;18.092;2024-03-02T14:09:28;16.13;;;9.00;;
7426;SDS011;3755;59.316;18.092;2024-03-02T14:11:56;18.73;;;8.97;;
7426;SDS011;3755;59.316;18.092;2024-03-02T14:14:25;17.60;;;9.37;;
7426;SDS011;3755;59.316;18.092;2024-03-02T14:16:54;16.53;;;8.80;;
7426;SDS011;3755;59.316;18.092;2024-03-02T14:19:29;15.00;;;8.70;;
7426;SDS011;3755;59.316;18.092;2024-03-02T14:21:57;18.37;;;9.37;;
7426;SDS011;3755;59.316;18.092;2024-03-02T14:24:25;17.30;;;9.23;;
7426;SDS011;3755;59.316;18.092;2024-03-02T14:26:54;14.53;;;9.20;;
7426;SDS011;3755;59.316;18.092;2024-03-02T14:29:22;16.80;;;8.60;;
7426;SDS011;3755;59.316;18.092;2024-03-02T14:31:49;19.53;;;10.20;;
7426;SDS011;3755;59.316;18.092;2024-03-02T14:34:18;17.03;;;9.23;;
7426;SDS011;3755;59.316;18.092;2024-03-02T14:36:45;16.30;;;9.33;;
7426;SDS011;3755;59.316;18.092;2024-03-02T14:39:12;14.33;;;8.63;;
7426;SDS011;3755;59.316;18.092;2024-03-02T14:41:39;18.37;;;9.17;;